Time;durP1;ratioP1;P1;durP2;ratioP2;P2;SDS_P1;SDS_P2;PMS_P1;PMS_P2;Temp;Humidity;BMP_temperature;BMP_pressure;BME280_temperature;BME280_humidity;BME280_pressure;Samples;Min_cycle;Max_cycle;Signal;HPM_P1;HPM_P2
2022/10/10 00:01:24;;;;;;;13.95;5.43;;;9.20;99.90;;;;;;5015803;28;20049;-69
2022/10/10 00:03:52;;;;;;;12.85;4.40;;;9.20;99.90;;;;;;5016709;28;20046;-69
2022/10/10 00:06:20;;;;;;;15.23;4.20;;;9.30;99.90;;;;;;5016708;28;20042;-69
2022/10/10 00:08:48;;;;;;;13.32;4.53;;;10.50;99.90;;;;;;5015284;28;20061;-69
2022/10/10 00:11:17;;;;;;;17.88;4.05;;;9.50;99.90;;;;;;5016585;28;20053;-69
2022/10/10 00:13:46;;;;;;;12.43;4.10;;;9.60;99.90;;;;;;5016798;28;20053;-69
2022/10/10 00:16:14;;;;;;;12.18;4.28;;;10.10;99.90;;;;;;4998288;28;20060;-69
2022/10/10 00:18:42;;;;;;;14.60;4.03;;;9.90;99.90;;;;;;5016197;28;20042;-69
2022/10/10 00:21:11;;;;;;;17.17;3.92;;;10.20;99.90;;;;;;5015193;28;20049;-69
2022/10/10 00:23:38;;;;;;;11.90;3.10;;;10.60;99.90;;;;;;5016261;28;20061;-69
2022/10/10 00:26:06;;;;;;;10.25;3.35;;;10.10;99.90;;;;;;5016277;28;20046;-69
2022/10/10 00:28:37;;;;;;;14.88;3.20;;;10.20;99.90;;;;;;5015507;28;20046;-69
2022/10/10 00:31:07;;;;;;;11.02;3.08;;;10.30;99.90;;;;;;5016117;28;20096;-70
2022/10/10 00:33:36;;;;;;;12.05;3.33;;;10.40;99.90;;;;;;5015967;28;20050;-69
2022/10/10 00:36:04;;;;;;;12.55;2.92;;;10.50;99.90;;;;;;4997980;28;20065;-69
2022/10/10 00:38:32;;;;;;;8.00;2.88;;;10.60;99.90;;;;;;5015845;28;20053;-69
2022/10/10 00:41:00;;;;;;;8.05;3.00;;;10.60;99.90;;;;;;5014977;28;20050;-69
2022/10/10 00:43:29;;;;;;;9.30;2.67;;;10.60;99.90;;;;;;4998913;28;20068;-69
2022/10/10 00:45:57;;;;;;;8.13;3.05;;;11.10;99.90;;;;;;5015911;28;20041;-69
2022/10/10 00:48:39;;;;;;;9.75;2.83;;;10.80;99.90;;;;;;4997712;28;20054;-69
2022/10/10 00:51:10;;;;;;;8.02;2.58;;;10.90;99.90;;;;;;4998951;28;20056;-69
2022/10/10 00:53:45;;;;;;;11.65;2.50;;;10.90;99.90;;;;;;5016051;28;20042;-69
2022/10/10 00:56:16;;;;;;;7.85;2.60;;;11.00;99.90;;;;;;5014579;28;20057;-69
2022/10/10 00:58:46;;;;;;;11.80;2.65;;;11.00;99.90;;;;;;5015081;28;20365;-69
2022/10/10 01:01:14;;;;;;;10.00;2.60;;;11.00;99.90;;;;;;5015157;28;20049;-69
2022/10/10 01:03:42;;;;;;;9.98;2.78;;;11.00;99.90;;;;;;5015648;28;20050;-69
2022/10/10 01:06:10;;;;;;;9.88;2.55;;;11.10;99.90;;;;;;4998567;28;20044;-69
2022/10/10 01:08:37;;;;;;;7.95;2.33;;;11.10;99.90;;;;;;5014338;28;20053;-69
2022/10/10 01:11:26;;;;;;;10.93;2.75;;;11.40;99.90;;;;;;5015573;28;20038;-69
2022/10/10 01:14:05;;;;;;;9.40;2.67;;;11.30;99.90;;;;;;5015557;28;20042;-69
2022/10/10 01:16:41;;;;;;;10.38;2.80;;;11.40;99.90;;;;;;5014288;28;20049;-69
2022/10/10 01:19:34;;;;;;;12.35;2.58;;;11.30;99.90;;;;;;5015225;28;20056;-69
2022/10/10 01:22:22;;;;;;;10.95;2.83;;;11.30;99.90;;;;;;5014225;28;20373;-69
2022/10/10 01:25:00;;;;;;;9.00;2.70;;;11.30;99.90;;;;;;5015231;28;20042;-69
2022/10/10 01:28:09;;;;;;;9.52;2.47;;;11.40;99.90;;;;;;5015206;28;20050;-69
2022/10/10 01:30:40;;;;;;;8.40;2.88;;;11.30;99.90;;;;;;5014285;28;20068;-69
2022/10/10 01:33:32;;;;;;;10.57;2.53;;;11.30;99.90;;;;;;5015543;28;20057;-69
2022/10/10 01:36:21;;;;;;;9.63;2.80;;;11.30;99.90;;;;;;5014016;28;20050;-69
2022/10/10 01:39:01;;;;;;;9.23;3.08;;;11.30;99.90;;;;;;5015593;28;20068;-69
2022/10/10 01:41:42;;;;;;;11.60;2.80;;;11.30;99.90;;;;;;5014102;28;20045;-68
2022/10/10 01:44:09;;;;;;;16.10;2.95;;;11.30;99.90;;;;;;5014950;28;20465;-69
2022/10/10 01:46:37;;;;;;;12.55;3.00;;;11.30;99.90;;;;;;5014830;28;20042;-69
2022/10/10 01:49:04;;;;;;;13.02;3.10;;;11.30;99.90;;;;;;5013844;28;20050;-69
2022/10/10 01:52:06;;;;;;;13.63;3.15;;;11.30;99.90;;;;;;5015101;28;20068;-69
2022/10/10 01:54:58;;;;;;;13.95;3.20;;;11.40;99.90;;;;;;4996568;28;20057;-69
2022/10/10 01:58:07;;;;;;;13.63;3.25;;;11.30;99.90;;;;;;4997889;28;20049;-69
2022/10/10 02:00:57;;;;;;;10.38;3.00;;;11.40;99.90;;;;;;4973930;28;20054;-69
2022/10/10 02:03:36;;;;;;;9.10;2.95;;;11.40;99.90;;;;;;4974494;28;20058;-69
2022/10/10 02:06:10;;;;;;;11.00;2.92;;;11.40;99.90;;;;;;5004452;28;20042;-69
2022/10/10 02:08:46;;;;;;;14.23;2.92;;;11.40;99.90;;;;;;5013540;28;20042;-68
2022/10/10 02:11:14;;;;;;;16.70;3.03;;;11.40;99.90;;;;;;4999731;28;20049;-69
2022/10/10 02:13:50;;;;;;;9.48;2.58;;;11.40;99.90;;;;;;5018769;28;20161;-69
2022/10/10 02:16:22;;;;;;;7.95;2.85;;;11.30;99.90;;;;;;5017627;28;20050;-69
2022/10/10 02:18:52;;;;;;;7.78;3.00;;;11.30;99.90;;;;;;5018903;28;20065;-68
2022/10/10 02:21:21;;;;;;;7.03;3.03;;;11.30;99.90;;;;;;5017564;28;20380;-68
2022/10/10 02:23:52;;;;;;;14.30;3.53;;;11.50;99.90;;;;;;5018723;28;20057;-69
2022/10/10 02:26:21;;;;;;;9.25;2.85;;;11.40;99.90;;;;;;5002003;28;20049;-69
2022/10/10 02:29:08;;;;;;;14.95;2.63;;;11.40;99.90;;;;;;5017416;28;20380;-69
2022/10/10 02:31:47;;;;;;;7.78;2.72;;;11.30;99.90;;;;;;5018854;28;20452;-70
2022/10/10 02:34:21;;;;;;;10.52;2.92;;;11.30;99.90;;;;;;5018411;28;20049;-69
2022/10/10 02:36:53;;;;;;;7.07;2.55;;;11.30;99.90;;;;;;5018335;28;20038;-69
2022/10/10 02:39:24;;;;;;;11.52;3.22;;;11.30;99.90;;;;;;5018512;28;20042;-70
2022/10/10 02:41:52;;;;;;;10.02;2.95;;;11.50;99.90;;;;;;5017249;28;20046;-69
2022/10/10 02:44:21;;;;;;;10.10;2.70;;;11.30;99.90;;;;;;5018538;28;20049;-69
2022/10/10 02:46:49;;;;;;;13.60;2.65;;;11.20;99.90;;;;;;5018395;28;20053;-69
2022/10/10 02:49:24;;;;;;;11.23;2.78;;;11.20;99.90;;;;;;5016966;28;20484;-69
2022/10/10 02:51:52;;;;;;;6.15;2.58;;;11.20;99.90;;;;;;5018043;28;20042;-69
2022/10/10 02:54:19;;;;;;;6.93;2.60;;;11.30;99.90;;;;;;5016891;28;20056;-69
2022/10/10 02:56:47;;;;;;;9.50;3.03;;;11.30;99.90;;;;;;5018193;28;20042;-69
2022/10/10 02:59:14;;;;;;;5.18;2.63;;;11.40;99.90;;;;;;5000805;28;20042;-69
2022/10/10 03:01:42;;;;;;;8.57;2.95;;;11.40;99.90;;;;;;4999920;28;20038;-69
2022/10/10 03:04:10;;;;;;;10.13;3.10;;;11.40;99.90;;;;;;5018424;28;20041;-70
2022/10/10 03:06:38;;;;;;;7.25;2.42;;;11.50;99.90;;;;;;5018010;28;20054;-70
2022/10/10 03:09:05;;;;;;;12.82;3.17;;;11.50;99.90;;;;;;5015394;28;20065;-70
2022/10/10 03:11:33;;;;;;;10.07;3.05;;;11.50;99.90;;;;;;4999453;28;20050;-69
2022/10/10 03:14:00;;;;;;;11.52;3.22;;;11.50;99.90;;;;;;5016359;28;20041;-70
2022/10/10 03:16:28;;;;;;;9.60;3.08;;;11.60;99.90;;;;;;5015422;28;20338;-69
2022/10/10 03:18:55;;;;;;;10.90;3.35;;;11.60;99.90;;;;;;5016618;28;20050;-70
2022/10/10 03:21:22;;;;;;;11.68;3.60;;;11.70;99.90;;;;;;5014837;28;20464;-69
2022/10/10 03:23:50;;;;;;;8.00;3.50;;;11.60;99.90;;;;;;5016418;28;20053;-69
2022/10/10 03:26:17;;;;;;;9.90;3.53;;;11.70;99.90;;;;;;5016532;28;20049;-69
2022/10/10 03:28:45;;;;;;;8.30;3.33;;;11.70;99.90;;;;;;5015229;28;20302;-70
2022/10/10 03:31:12;;;;;;;12.60;3.20;;;11.80;99.90;;;;;;5016511;28;20291;-69
2022/10/10 03:33:40;;;;;;;10.48;3.38;;;11.70;99.90;;;;;;4999331;28;20050;-69
2022/10/10 03:36:08;;;;;;;10.68;3.05;;;11.80;99.90;;;;;;5015144;28;20053;-69
2022/10/10 03:38:35;;;;;;;11.98;3.55;;;11.80;99.90;;;;;;5016305;28;20042;-69
2022/10/10 03:41:02;;;;;;;7.37;2.97;;;11.90;99.90;;;;;;5014808;28;20045;-69
2022/10/10 03:43:30;;;;;;;15.77;3.45;;;11.90;99.90;;;;;;5016261;28;20714;-70
2022/10/10 03:45:57;;;;;;;8.98;2.85;;;11.90;99.90;;;;;;5016646;28;20045;-69
2022/10/10 03:48:25;;;;;;;9.35;3.15;;;12.00;99.90;;;;;;4997749;28;20050;-69
2022/10/10 03:50:52;;;;;;;12.68;3.38;;;12.00;99.90;;;;;;4998914;28;20058;-70
2022/10/10 03:53:20;;;;;;;10.43;3.20;;;12.00;99.90;;;;;;5015861;28;20053;-69
2022/10/10 03:55:47;;;;;;;8.75;2.95;;;12.00;99.90;;;;;;4997550;28;20050;-70
2022/10/10 03:58:15;;;;;;;11.65;3.25;;;12.00;99.90;;;;;;5016454;28;20046;-70
2022/10/10 04:00:57;;;;;;;8.18;2.80;;;12.00;99.90;;;;;;5016020;28;20042;-69
2022/10/10 04:03:25;;;;;;;11.32;2.92;;;12.00;99.90;;;;;;5015913;28;20045;-69
2022/10/10 04:05:54;;;;;;;9.50;2.80;;;12.10;99.90;;;;;;5015767;28;20041;-70
2022/10/10 04:08:22;;;;;;;9.65;2.72;;;12.10;99.90;;;;;;4972331;28;1229602;-69
2022/10/10 04:10:51;;;;;;;11.77;2.60;;;12.20;99.90;;;;;;5016609;28;20061;-70
2022/10/10 04:13:19;;;;;;;10.90;2.47;;;12.30;99.90;;;;;;5016648;28;20476;-70
2022/10/10 04:15:51;;;;;;;9.98;2.40;;;12.40;99.90;;;;;;5015793;28;20368;-70
2022/10/10 04:18:19;;;;;;;7.75;2.50;;;12.40;99.90;;;;;;5016657;28;20050;-69
2022/10/10 04:20:46;;;;;;;11.48;2.30;;;12.50;99.90;;;;;;5016423;28;20046;-69
2022/10/10 04:23:14;;;;;;;13.23;2.33;;;12.60;99.90;;;;;;5015216;28;20068;-69
2022/10/10 04:25:42;;;;;;;9.40;2.70;;;12.60;99.90;;;;;;5016689;28;20276;-69
2022/10/10 04:28:15;;;;;;;13.10;2.63;;;12.70;99.90;;;;;;4997857;28;20060;-70
2022/10/10 04:30:43;;;;;;;13.93;2.53;;;12.80;99.90;;;;;;5016365;28;20497;-69
2022/10/10 04:33:11;;;;;;;7.25;2.22;;;12.80;99.90;;;;;;5015268;28;20045;-70
2022/10/10 04:35:39;;;;;;;9.02;2.28;;;12.80;99.90;;;;;;5015353;28;20050;-70
2022/10/10 04:38:08;;;;;;;9.02;2.28;;;12.90;99.90;;;;;;5016650;28;20053;-70
2022/10/10 04:40:36;;;;;;;10.25;2.50;;;13.00;99.90;;;;;;5016086;28;20053;-69
2022/10/10 04:43:04;;;;;;;10.45;2.30;;;12.90;99.90;;;;;;4997613;28;20046;-69
2022/10/10 04:45:31;;;;;;;13.60;2.83;;;13.00;99.90;;;;;;4998708;28;20049;-69
2022/10/10 04:48:04;;;;;;;10.38;2.50;;;12.90;99.90;;;;;;5014959;28;20288;-69
2022/10/10 04:50:32;;;;;;;9.88;2.28;;;13.00;99.90;;;;;;5015944;28;20058;-69
2022/10/10 04:52:59;;;;;;;;;;;13.10;99.90;;;;;;4999032;28;20069;-69
2022/10/10 04:55:27;;;;;;;9.07;2.17;;;13.00;99.90;;;;;;5014921;28;19921;-69
2022/10/10 04:57:54;;;;;;;9.45;2.22;;;13.00;99.90;;;;;;5016000;28;20372;-69
2022/10/10 05:00:21;;;;;;;12.05;2.50;;;13.20;99.90;;;;;;5015758;28;20045;-69
2022/10/10 05:02:49;;;;;;;10.60;2.30;;;13.10;99.90;;;;;;5014702;28;20368;-69
2022/10/10 05:05:17;;;;;;;6.93;2.10;;;13.20;99.90;;;;;;5015625;28;20054;-70
2022/10/10 05:07:45;;;;;;;7.95;2.08;;;14.80;99.90;;;;;;5014268;28;20046;-69
2022/10/10 05:10:12;;;;;;;7.50;2.03;;;13.20;99.90;;;;;;5015816;28;20049;-69
2022/10/10 05:12:40;;;;;;;11.10;2.30;;;13.20;99.90;;;;;;5015361;28;20294;-69
2022/10/10 05:15:07;;;;;;;11.90;2.40;;;13.30;99.90;;;;;;5014322;28;20050;-69
2022/10/10 05:17:35;;;;;;;10.20;2.22;;;13.30;99.90;;;;;;5015910;28;20369;-69
2022/10/10 05:20:03;;;;;;;9.25;2.17;;;13.40;99.90;;;;;;5015391;28;20034;-69
2022/10/10 05:22:30;;;;;;;9.63;2.38;;;13.40;99.90;;;;;;5014609;28;20050;-70
2022/10/10 05:24:58;;;;;;;12.63;2.28;;;13.50;99.90;;;;;;4998362;28;20042;-69
2022/10/10 05:27:26;;;;;;;7.05;2.40;;;13.60;99.90;;;;;;5015117;28;20057;-69
2022/10/10 05:29:57;;;;;;;10.13;2.17;;;13.60;99.90;;;;;;5013671;28;20054;-70
2022/10/10 05:32:24;;;;;;;14.52;2.45;;;13.60;99.90;;;;;;4998107;28;20380;-69
2022/10/10 05:34:52;;;;;;;7.47;2.17;;;13.60;99.90;;;;;;5014381;28;20056;-69
2022/10/10 05:37:19;;;;;;;12.82;2.70;;;13.60;99.90;;;;;;5015089;28;20053;-69
2022/10/10 05:39:47;;;;;;;10.27;2.67;;;13.60;99.90;;;;;;5015310;28;20049;-69
2022/10/10 05:42:21;;;;;;;7.07;2.17;;;13.70;99.90;;;;;;4996924;28;20058;-70
2022/10/10 05:44:48;;;;;;;11.77;2.67;;;13.70;99.90;;;;;;5015264;28;20038;-69
2022/10/10 05:47:16;;;;;;;9.05;2.75;;;13.70;99.90;;;;;;4998301;28;20045;-69
2022/10/10 05:49:44;;;;;;;8.07;2.50;;;13.70;99.90;;;;;;4996547;28;20042;-70
2022/10/10 05:52:11;;;;;;;6.15;2.00;;;13.70;99.90;;;;;;5015075;28;20065;-70
2022/10/10 05:54:39;;;;;;;16.88;2.90;;;13.70;99.90;;;;;;4996838;28;20056;-69
2022/10/10 05:57:06;;;;;;;12.05;2.70;;;13.70;99.90;;;;;;5015231;28;20045;-69
2022/10/10 05:59:36;;;;;;;7.72;2.50;;;13.70;99.90;;;;;;5015231;28;20049;-69
2022/10/10 06:02:04;;;;;;;8.97;2.73;;;13.70;99.90;;;;;;5013729;28;20042;-69
2022/10/10 06:04:31;;;;;;;9.70;2.80;;;13.70;99.90;;;;;;5015034;28;20271;-69
2022/10/10 06:06:59;;;;;;;9.70;2.50;;;13.80;99.90;;;;;;5014679;28;20046;-69
2022/10/10 06:09:26;;;;;;;13.70;2.70;;;13.80;99.90;;;;;;5013848;28;20272;-70
2022/10/10 06:11:54;;;;;;;14.27;2.88;;;13.80;99.90;;;;;;5014835;28;20046;-69
2022/10/10 06:14:21;;;;;;;10.35;2.40;;;13.80;99.90;;;;;;5013854;28;20069;-69
2022/10/10 06:16:49;;;;;;;12.17;2.63;;;13.90;99.90;;;;;;5014702;28;20050;-70
2022/10/10 06:19:16;;;;;;;13.25;3.30;;;14.00;99.90;;;;;;5014819;28;20599;-69
2022/10/10 06:21:44;;;;;;;13.02;3.28;;;14.10;99.90;;;;;;5013381;28;20042;-69
2022/10/10 06:24:11;;;;;;;12.93;3.60;;;14.10;99.90;;;;;;5015495;28;20046;-69
2022/10/10 06:26:39;;;;;;;10.82;3.95;;;14.10;99.90;;;;;;5015133;28;20049;-69
2022/10/10 06:29:06;;;;;;;11.98;4.20;;;14.00;99.90;;;;;;5013483;28;20045;-69
2022/10/10 06:31:38;;;;;;;18.70;4.53;;;13.90;99.90;;;;;;5013095;28;20050;-70
2022/10/10 06:34:06;;;;;;;12.48;4.53;;;13.80;99.90;;;;;;5013882;28;20049;-70
2022/10/10 06:36:34;;;;;;;22.20;5.63;;;13.60;99.90;;;;;;5013178;28;20050;-70
2022/10/10 06:39:01;;;;;;;12.50;5.53;;;13.40;99.90;;;;;;5014355;28;20061;-70
2022/10/10 06:41:29;;;;;;;16.92;5.63;;;13.30;99.90;;;;;;5013176;28;20046;-70
2022/10/10 06:43:56;;;;;;;15.35;6.18;;;13.10;99.90;;;;;;5014307;28;20049;-69
2022/10/10 06:46:24;;;;;;;30.70;7.53;;;13.00;99.90;;;;;;5014175;28;20384;-70
2022/10/10 06:48:51;;;;;;;23.38;7.70;;;12.80;99.90;;;;;;5012849;28;20464;-71
2022/10/10 06:51:19;;;;;;;30.83;8.77;;;12.80;99.90;;;;;;5014295;28;20476;-69
2022/10/10 06:53:46;;;;;;;27.50;9.90;;;12.70;99.90;;;;;;5033223;28;20479;-69
2022/10/10 06:56:20;;;;;;;30.52;10.23;;;12.70;99.90;;;;;;5033107;28;20053;-69
2022/10/10 06:58:54;;;;;;;36.95;11.02;;;12.70;99.90;;;;;;5004891;28;20511;-69
2022/10/10 07:01:23;;;;;;;40.58;12.00;;;12.60;99.90;;;;;;5036063;28;20057;-69
2022/10/10 07:03:51;;;;;;;37.20;11.75;;;12.60;99.90;;;;;;5037435;28;20075;-69
2022/10/10 07:06:19;;;;;;;22.67;12.15;;;12.50;99.90;;;;;;5020036;28;20045;-69
2022/10/10 07:08:46;;;;;;;19.73;9.25;;;12.60;99.90;;;;;;5036078;28;20050;-69
2022/10/10 07:11:14;;;;;;;28.35;10.90;;;12.50;99.90;;;;;;5037414;28;20045;-69
2022/10/10 07:13:42;;;;;;;25.25;11.50;;;12.40;99.90;;;;;;5019889;28;20049;-69
2022/10/10 07:16:10;;;;;;;19.83;11.00;;;12.40;99.90;;;;;;5035988;28;20052;-69
2022/10/10 07:18:37;;;;;;;28.95;11.77;;;12.50;99.90;;;;;;5037083;28;20357;-69
2022/10/10 07:21:05;;;;;;;15.35;7.63;;;12.40;99.90;;;;;;5035987;28;20037;-69
2022/10/10 07:23:35;;;;;;;10.35;3.63;;;12.40;99.90;;;;;;5019844;28;20045;-69
2022/10/10 07:26:10;;;;;;;10.68;2.92;;;12.20;99.90;;;;;;5019591;28;20049;-69
2022/10/10 07:28:38;;;;;;;9.23;2.60;;;12.00;99.90;;;;;;5035859;28;20046;-69
2022/10/10 07:31:08;;;;;;;13.18;2.50;;;12.70;99.90;;;;;;5036453;28;20046;-69
2022/10/10 07:33:42;;;;;;;15.75;2.50;;;11.60;99.90;;;;;;5030180;28;20060;-71
2022/10/10 07:36:17;;;;;;;14.88;2.28;;;11.40;99.90;;;;;;5033871;28;20045;-71
2022/10/10 07:38:48;;;;;;;13.48;2.35;;;11.20;99.90;;;;;;5024859;28;20050;-70
2022/10/10 07:41:16;;;;;;;15.90;2.58;;;11.00;99.90;;;;;;4982039;28;20058;-70
2022/10/10 07:43:44;;;;;;;15.27;3.08;;;10.90;99.90;;;;;;5017834;28;20038;-69
2022/10/10 07:46:17;;;;;;;20.48;2.90;;;10.80;99.90;;;;;;5017545;28;20053;-70
2022/10/10 07:48:45;;;;;;;17.33;3.25;;;10.80;99.90;;;;;;4983109;28;20049;-70
2022/10/10 07:51:12;;;;;;;11.32;2.80;;;10.80;99.90;;;;;;5017273;28;20064;-70
2022/10/10 07:53:40;;;;;;;18.83;3.00;;;10.90;99.90;;;;;;5017264;28;20042;-70
2022/10/10 07:56:08;;;;;;;13.98;3.20;;;10.90;99.90;;;;;;5016208;28;20372;-71
2022/10/10 07:58:36;;;;;;;18.88;2.75;;;11.00;99.90;;;;;;4999644;28;20049;-70
2022/10/10 08:01:06;;;;;;;13.85;3.00;;;11.50;99.90;;;;;;5016454;28;20045;-70
2022/10/10 08:03:34;;;;;;;19.05;2.80;;;11.00;99.90;;;;;;5029390;28;20056;-70
2022/10/10 08:06:03;;;;;;;16.00;2.53;;;11.30;99.90;;;;;;5036505;28;20045;-65
2022/10/10 08:08:31;;;;;;;17.05;2.00;;;10.80;99.90;;;;;;5040469;28;20037;-70
2022/10/10 08:11:03;;;;;;;21.20;2.50;;;10.80;99.90;;;;;;5057022;28;20317;-69
2022/10/10 08:13:32;;;;;;;15.57;2.50;;;10.70;99.90;;;;;;5055857;28;20063;-69
2022/10/10 08:15:59;;;;;;;16.92;2.40;;;10.60;99.90;;;;;;5055408;28;20375;-69
2022/10/10 08:18:27;;;;;;;21.80;2.72;;;10.50;99.90;;;;;;5055515;28;20052;-69
2022/10/10 08:21:04;;;;;;;13.88;2.20;;;10.30;99.90;;;;;;5056128;28;20049;-69
2022/10/10 08:23:32;;;;;;;17.13;2.63;;;10.40;99.90;;;;;;5056359;28;20045;-69
2022/10/10 08:26:01;;;;;;;19.17;2.50;;;11.00;99.90;;;;;;5056227;28;20041;-69
2022/10/10 08:28:29;;;;;;;22.42;2.28;;;10.30;99.90;;;;;;5054880;28;20075;-69
2022/10/10 08:30:56;;;;;;;21.15;2.75;;;10.30;99.90;;;;;;5055909;28;20045;-69
2022/10/10 08:33:27;;;;;;;23.90;2.50;;;10.40;99.90;;;;;;5055842;28;20041;-69
2022/10/10 08:35:55;;;;;;;19.05;2.55;;;11.20;99.90;;;;;;5054062;28;20056;-69
2022/10/10 08:38:22;;;;;;;13.73;2.33;;;10.40;99.90;;;;;;5055425;28;20061;-69
2022/10/10 08:40:53;;;;;;;17.05;2.33;;;10.40;99.90;;;;;;5055002;28;20037;-69
2022/10/10 08:43:39;;;;;;;16.20;2.38;;;11.00;99.90;;;;;;5054678;28;20048;-69
2022/10/10 08:46:18;;;;;;;15.73;2.30;;;10.50;99.90;;;;;;5055242;28;20380;-69
2022/10/10 08:48:47;;;;;;;16.27;2.50;;;10.80;99.90;;;;;;5053838;28;20045;-69
2022/10/10 08:51:30;;;;;;;21.75;2.50;;;10.60;99.90;;;;;;5038207;28;20052;-69
2022/10/10 08:54:03;;;;;;;22.38;2.90;;;10.70;99.90;;;;;;5056125;28;20045;-69
2022/10/10 08:56:33;;;;;;;14.82;2.70;;;10.80;99.90;;;;;;5054501;28;20045;-69
2022/10/10 08:59:11;;;;;;;20.73;2.60;;;10.90;99.90;;;;;;5055778;28;20049;-69
2022/10/10 09:01:38;;;;;;;15.23;2.40;;;11.00;99.90;;;;;;5054432;28;20044;-69
2022/10/10 09:04:29;;;;;;;17.67;2.47;;;11.20;99.90;;;;;;5055407;28;20367;-69
2022/10/10 09:07:13;;;;;;;21.55;2.97;;;11.30;99.90;;;;;;5054792;28;20052;-69
2022/10/10 09:10:04;;;;;;;15.25;2.20;;;11.40;99.90;;;;;;5034491;28;20049;-69
2022/10/10 09:12:50;;;;;;;20.00;2.40;;;11.50;99.90;;;;;;5035156;28;20046;-69
2022/10/10 09:15:32;;;;;;;16.30;2.58;;;11.50;99.90;;;;;;5034465;28;20384;-69
2022/10/10 09:18:18;;;;;;;14.77;2.65;;;11.40;99.90;;;;;;5035189;28;20349;-69
2022/10/10 09:21:01;;;;;;;20.58;2.42;;;11.40;99.90;;;;;;5034694;28;20368;-69
2022/10/10 09:23:55;;;;;;;17.02;2.40;;;11.50;99.90;;;;;;5035566;28;20053;-69
2022/10/10 09:26:27;;;;;;;16.80;2.20;;;11.60;99.90;;;;;;4995943;28;20053;-69
2022/10/10 09:29:05;;;;;;;13.82;1.85;;;11.70;99.90;;;;;;5016736;28;20072;-69
2022/10/10 09:31:58;;;;;;;16.38;2.03;;;11.90;99.90;;;;;;5035169;28;20046;-69
2022/10/10 09:34:37;;;;;;;16.77;2.30;;;11.90;99.90;;;;;;4997792;28;20050;-69
2022/10/10 09:37:14;;;;;;;17.45;2.60;;;12.00;99.90;;;;;;5017795;28;20037;-69
2022/10/10 09:40:07;;;;;;;25.58;2.83;;;12.10;99.90;;;;;;5018139;28;20050;-69
2022/10/10 09:42:37;;;;;;;15.45;2.30;;;12.00;99.90;;;;;;5033263;28;20045;-69
2022/10/10 09:45:22;;;;;;;16.40;2.67;;;12.00;99.90;;;;;;5034577;28;20056;-68
2022/10/10 09:47:54;;;;;;;11.52;2.40;;;11.70;99.90;;;;;;5033365;28;20049;-69
2022/10/10 09:50:23;;;;;;;20.50;2.40;;;11.70;99.90;;;;;;5034596;28;20048;-69
2022/10/10 09:52:51;;;;;;;20.23;2.47;;;11.60;99.90;;;;;;5034686;28;20049;-69
2022/10/10 09:55:29;;;;;;;20.65;2.85;;;11.50;99.90;;;;;;5016194;28;20049;-69
2022/10/10 09:58:03;;;;;;;17.27;2.80;;;11.60;99.90;;;;;;5034154;28;20060;-69
2022/10/10 10:00:36;;;;;;;23.02;2.70;;;11.70;99.90;;;;;;5034312;28;20132;-69
2022/10/10 10:03:13;;;;;;;19.10;2.60;;;11.70;99.90;;;;;;5033233;28;20052;-69
2022/10/10 10:06:03;;;;;;;15.18;2.53;;;11.70;99.90;;;;;;5034300;28;20464;-69
2022/10/10 10:08:33;;;;;;;19.83;2.83;;;11.70;99.90;;;;;;5039409;28;20056;-69
2022/10/10 10:11:03;;;;;;;21.10;3.20;;;11.90;99.90;;;;;;5053909;28;20056;-69
2022/10/10 10:13:34;;;;;;;15.80;2.50;;;11.80;99.90;;;;;;5054151;28;20060;-69
2022/10/10 10:16:12;;;;;;;20.80;2.78;;;11.90;99.90;;;;;;5052340;28;20040;-69
2022/10/10 10:18:42;;;;;;;22.83;2.83;;;12.00;99.90;;;;;;5053313;28;20076;-71
2022/10/10 10:21:27;;;;;;;20.27;3.10;;;12.00;99.90;;;;;;5052935;28;20052;-69
2022/10/10 10:24:00;;;;;;;19.25;2.65;;;12.00;99.90;;;;;;5053180;28;20064;-70
2022/10/10 10:26:42;;;;;;;26.75;3.75;;;12.00;99.90;;;;;;5052960;28;20052;-70
2022/10/10 10:29:28;;;;;;;17.58;3.05;;;11.80;99.90;;;;;;5043086;28;20048;-69
2022/10/10 10:31:58;;;;;;;21.92;3.00;;;11.70;99.90;;;;;;5054695;28;20045;-68
2022/10/10 10:34:48;;;;;;;24.73;3.22;;;11.70;99.90;;;;;;5057085;28;20052;-70
2022/10/10 10:37:39;;;;;;;16.33;3.00;;;11.60;99.90;;;;;;5057349;28;20045;-70
2022/10/10 10:40:13;;;;;;;17.08;2.70;;;11.80;99.90;;;;;;5044841;28;20056;-70
2022/10/10 10:42:46;;;;;;;19.80;2.67;;;11.60;99.90;;;;;;5056934;28;20048;-69
2022/10/10 10:45:35;;;;;;;21.30;3.22;;;11.60;99.90;;;;;;5058063;28;20059;-70
2022/10/10 10:48:24;;;;;;;20.45;3.33;;;11.50;99.90;;;;;;5047971;28;20052;-70
2022/10/10 10:50:59;;;;;;;24.92;3.05;;;11.50;99.90;;;;;;5049097;28;20487;-69
2022/10/10 10:53:59;;;;;;;24.45;3.03;;;11.60;99.90;;;;;;5021065;28;20064;-71
2022/10/10 10:56:46;;;;;;;17.27;2.47;;;11.60;99.90;;;;;;4997280;28;20080;-69
2022/10/10 10:59:48;;;;;;;24.48;3.30;;;11.70;99.90;;;;;;5047700;28;20056;-70
2022/10/10 11:02:42;;;;;;;18.25;3.00;;;11.70;99.90;;;;;;5053768;28;20387;-69
2022/10/10 11:05:39;;;;;;;18.73;3.10;;;11.70;99.90;;;;;;5050438;28;20132;-69
2022/10/10 11:08:24;;;;;;;17.50;2.75;;;11.80;99.90;;;;;;5039987;28;20404;-70
2022/10/10 11:11:03;;;;;;;17.33;2.65;;;11.90;99.90;;;;;;5037577;28;20468;-70
2022/10/10 11:13:45;;;;;;;20.35;2.78;;;11.90;99.90;;;;;;5024111;28;20050;-71
2022/10/10 11:16:20;;;;;;;22.83;2.60;;;11.90;99.90;;;;;;4999621;28;20476;-72
2022/10/10 11:19:22;;;;;;;17.05;2.53;;;12.00;99.90;;;;;;5003324;28;20042;-71
2022/10/10 11:22:14;;;;;;;20.58;2.90;;;12.00;99.90;;;;;;5016531;28;20366;-70
2022/10/10 11:25:01;;;;;;;16.35;2.53;;;12.00;99.90;;;;;;5008480;28;20046;-69
2022/10/10 11:27:49;;;;;;;14.43;2.13;;;12.10;99.90;;;;;;5037109;28;20045;-70
2022/10/10 11:30:20;;;;;;;15.70;2.30;;;12.10;99.90;;;;;;5020737;28;20049;-71
2022/10/10 11:33:00;;;;;;;17.63;2.40;;;12.10;99.90;;;;;;5019816;28;20042;-71
2022/10/10 11:35:53;;;;;;;15.20;2.20;;;12.20;99.90;;;;;;5036219;28;20064;-71
2022/10/10 11:38:43;;;;;;;15.90;2.40;;;12.30;99.90;;;;;;5033003;28;20057;-70
2022/10/10 11:41:22;;;;;;;15.82;2.53;;;12.40;99.90;;;;;;4990255;28;20061;-71
2022/10/10 11:43:53;;;;;;;20.35;2.60;;;12.50;99.90;;;;;;5010869;28;20061;-69
2022/10/10 11:46:44;;;;;;;26.95;2.72;;;12.50;99.90;;;;;;5017371;28;20377;-71
2022/10/10 11:49:16;;;;;;;13.95;2.35;;;12.50;99.90;;;;;;4982278;28;20041;-69
2022/10/10 11:51:56;;;;;;;18.67;2.58;;;12.60;99.90;;;;;;5016717;28;20104;-69
2022/10/10 11:55:17;;;;;;;15.15;2.33;;;12.70;99.90;;;;;;4998250;28;20054;-69
2022/10/10 11:57:51;;;;;;;8.85;1.90;;;12.70;99.90;;;;;;5016803;28;20050;-70
2022/10/10 12:00:19;;;;;;;13.60;1.70;;;12.80;99.90;;;;;;4999534;28;20053;-70
2022/10/10 12:02:47;;;;;;;13.18;2.08;;;12.80;99.90;;;;;;5015408;28;20061;-69
2022/10/10 12:05:27;;;;;;;12.63;2.30;;;12.80;99.90;;;;;;4999123;28;20060;-70
2022/10/10 12:08:24;;;;;;;13.07;2.15;;;12.90;99.90;;;;;;5008899;28;20056;-69
2022/10/10 12:11:04;;;;;;;19.73;2.60;;;12.90;99.90;;;;;;5044553;28;20060;-70
2022/10/10 12:13:35;;;;;;;12.68;1.65;;;13.00;99.90;;;;;;5045495;28;20388;-69
2022/10/10 12:16:07;;;;;;;13.68;2.00;;;13.00;99.90;;;;;;5042853;28;20047;-69
2022/10/10 12:18:59;;;;;;;10.20;1.98;;;13.10;99.90;;;;;;5051439;28;20463;-70
2022/10/10 12:21:29;;;;;;;10.70;1.90;;;13.20;99.90;;;;;;5054825;28;20048;-69
2022/10/10 12:24:11;;;;;;;11.88;2.22;;;13.20;99.90;;;;;;5055735;28;20107;-70
2022/10/10 12:26:54;;;;;;;9.30;1.77;;;13.20;99.90;;;;;;5054881;28;20049;-70
2022/10/10 12:29:40;;;;;;;15.07;2.50;;;13.30;99.90;;;;;;5044371;28;20052;-70
2022/10/10 12:32:13;;;;;;;11.65;1.92;;;13.30;99.90;;;;;;5046902;28;20056;-70
2022/10/10 12:34:47;;;;;;;11.35;2.13;;;13.40;99.90;;;;;;5054728;28;20048;-70
2022/10/10 12:37:24;;;;;;;12.30;1.73;;;13.40;99.90;;;;;;5044990;28;20041;-70
2022/10/10 12:39:59;;;;;;;9.75;1.80;;;13.50;99.90;;;;;;5036471;28;20050;-73
2022/10/10 12:42:49;;;;;;;12.50;2.25;;;13.50;99.90;;;;;;5034865;28;20380;-71
2022/10/10 12:45:29;;;;;;;20.08;2.10;;;13.60;99.90;;;;;;5026245;28;20071;-70
2022/10/10 12:48:01;;;;;;;13.60;2.10;;;13.70;99.90;;;;;;5042366;28;20064;-70
2022/10/10 12:50:52;;;;;;;9.25;1.98;;;13.80;99.90;;;;;;5040505;28;20049;-69
2022/10/10 12:53:22;;;;;;;15.30;2.20;;;13.80;99.90;;;;;;5043281;28;20055;-69
2022/10/10 12:55:54;;;;;;;9.68;1.80;;;13.90;99.90;;;;;;5053882;28;20041;-70
2022/10/10 12:58:30;;;;;;;13.07;2.15;;;13.90;99.90;;;;;;5055230;28;20473;-71
2022/10/10 13:01:01;;;;;;;12.18;2.05;;;14.00;99.90;;;;;;5043836;28;20377;-71
2022/10/10 13:03:34;;;;;;;11.95;2.30;;;14.10;99.90;;;;;;5036037;28;20041;-70
2022/10/10 13:06:07;;;;;;;13.77;2.20;;;14.10;99.90;;;;;;5036089;28;20041;-70
2022/10/10 13:08:38;;;;;;;13.73;2.08;;;14.10;99.90;;;;;;5022946;28;20060;-70
2022/10/10 13:11:14;;;;;;;11.18;2.10;;;14.20;99.90;;;;;;5016263;28;20050;-70